Time;durP1;ratioP1;P1;durP2;ratioP2;P2;SDS_P1;SDS_P2;PMS_P1;PMS_P2;Temp;Humidity;BMP_temperature;BMP_pressure;BME280_temperature;BME280_humidity;BME280_pressure;Samples;Min_cycle;Max_cycle;Signal;HPM_P1;HPM_P2
2023/07/11 00:00:59;;;;;;;5.83;2.00;;;19.90;99.90;;;;;;7279659;19;20204;-76
2023/07/11 00:03:25;;;;;;;6.00;2.00;;;19.90;99.90;;;;;;7299644;19;20219;-76
2023/07/11 00:06:04;;;;;;;6.50;2.23;;;19.90;99.90;;;;;;7278121;19;20531;-76
2023/07/11 00:08:30;;;;;;;8.93;2.70;;;19.90;99.90;;;;;;7257465;19;20318;-76
2023/07/11 00:10:57;;;;;;;5.50;1.97;;;19.80;99.90;;;;;;7300412;19;20199;-76
2023/07/11 00:13:23;;;;;;;7.07;2.17;;;19.70;99.90;;;;;;7278715;19;20191;-76
2023/07/11 00:16:10;;;;;;;6.50;2.07;;;19.60;99.90;;;;;;7277974;19;20271;-77
2023/07/11 00:18:36;;;;;;;7.97;2.17;;;19.70;99.90;;;;;;7175337;19;2004775;-78
2023/07/11 00:21:04;;;;;;;6.67;2.10;;;19.70;99.90;;;;;;7277377;19;20650;-77
2023/07/11 00:23:31;;;;;;;6.17;2.30;;;19.90;99.90;;;;;;7277643;19;20258;-77
2023/07/11 00:25:56;;;;;;;6.90;1.93;;;19.90;99.90;;;;;;7297816;19;21154;-77
2023/07/11 00:28:22;;;;;;;6.83;2.27;;;19.90;99.90;;;;;;7276684;19;20240;-77
2023/07/11 00:30:51;;;;;;;5.47;2.10;;;19.80;99.90;;;;;;7277047;19;20565;-77
2023/07/11 00:33:18;;;;;;;5.53;1.90;;;19.70;99.90;;;;;;7276242;19;20219;-77
2023/07/11 00:35:45;;;;;;;9.10;2.17;;;19.70;99.90;;;;;;7276513;19;20181;-76
2023/07/11 00:38:12;;;;;;;6.27;2.27;;;19.70;99.90;;;;;;7275979;19;20212;-76
2023/07/11 00:40:43;;;;;;;6.87;2.10;;;19.70;99.90;;;;;;7276363;19;20196;-76
2023/07/11 00:43:13;;;;;;;5.43;2.03;;;19.70;99.90;;;;;;7276093;19;20304;-77
2023/07/11 00:46:11;;;;;;;6.20;1.97;;;19.60;99.90;;;;;;7276642;19;20734;-77
2023/07/11 00:48:39;;;;;;;5.83;2.03;;;19.60;99.90;;;;;;7173487;19;2006417;-77
2023/07/11 00:51:08;;;;;;;5.23;1.90;;;19.50;99.90;;;;;;7275114;19;20211;-76
2023/07/11 00:53:35;;;;;;;4.27;1.93;;;19.30;99.90;;;;;;7277132;19;20193;-76
2023/07/11 00:56:05;;;;;;;6.53;2.20;;;19.20;99.90;;;;;;7274891;19;20674;-76
2023/07/11 00:58:32;;;;;;;7.10;2.33;;;19.10;99.90;;;;;;7276304;19;20208;-76
2023/07/11 01:00:59;;;;;;;7.20;2.10;;;19.00;99.90;;;;;;7289775;19;20281;-77
2023/07/11 01:03:25;;;;;;;7.23;2.00;;;19.00;99.90;;;;;;7296748;19;20198;-76
2023/07/11 01:05:55;;;;;;;4.77;1.70;;;19.20;99.90;;;;;;7275627;19;20189;-76
2023/07/11 01:08:21;;;;;;;7.67;2.00;;;19.20;99.90;;;;;;7276551;19;20195;-76
2023/07/11 01:10:46;;;;;;;5.80;2.23;;;19.10;99.90;;;;;;7281052;19;20192;-77
2023/07/11 01:13:12;;;;;;;5.27;1.83;;;19.10;99.90;;;;;;7283637;19;20184;-77
2023/07/11 01:15:38;;;;;;;6.50;2.07;;;19.00;99.90;;;;;;7282104;19;20184;-77
2023/07/11 01:18:03;;;;;;;3.53;1.90;;;19.10;99.90;;;;;;7282857;19;20794;-77
2023/07/11 01:20:29;;;;;;;4.93;2.17;;;19.20;99.90;;;;;;7284343;19;20191;-77
2023/07/11 01:22:55;;;;;;;7.37;1.97;;;19.20;99.90;;;;;;7304246;19;20191;-76
2023/07/11 01:25:22;;;;;;;6.53;2.40;;;19.20;99.90;;;;;;7281965;19;20189;-77
2023/07/11 01:27:49;;;;;;;6.53;2.20;;;19.20;99.90;;;;;;7282851;19;20191;-76
2023/07/11 01:30:20;;;;;;;4.73;2.00;;;19.10;99.90;;;;;;7282281;19;20215;-76
2023/07/11 01:32:47;;;;;;;7.73;2.10;;;19.00;99.90;;;;;;7282397;19;20181;-76
2023/07/11 01:35:14;;;;;;;5.40;1.90;;;19.00;99.90;;;;;;7282251;19;20198;-76
2023/07/11 01:37:40;;;;;;;7.67;2.13;;;19.00;99.90;;;;;;7282530;19;20829;-76
2023/07/11 01:40:07;;;;;;;7.87;2.20;;;19.00;99.90;;;;;;7281496;19;20190;-76
2023/07/11 01:42:34;;;;;;;9.43;2.40;;;19.00;99.90;;;;;;7282627;19;20787;-77
2023/07/11 01:45:00;;;;;;;5.53;1.93;;;19.10;99.90;;;;;;7281068;19;20196;-77
2023/07/11 01:47:26;;;;;;;7.23;2.40;;;19.10;99.90;;;;;;7304331;19;20189;-76
2023/07/11 01:49:52;;;;;;;5.93;1.83;;;19.10;99.90;;;;;;7281597;19;20184;-77
2023/07/11 01:52:20;;;;;;;6.40;2.20;;;19.10;99.90;;;;;;7281275;19;20198;-77
2023/07/11 01:54:46;;;;;;;6.03;2.00;;;19.10;99.90;;;;;;7281868;19;20201;-76
2023/07/11 01:57:13;;;;;;;6.60;2.40;;;19.00;99.90;;;;;;7281464;19;20256;-76
2023/07/11 01:59:39;;;;;;;4.50;2.20;;;19.00;99.90;;;;;;7280594;19;20570;-77
2023/07/11 02:02:07;;;;;;;5.00;2.03;;;19.00;99.90;;;;;;7279845;19;20213;-76
2023/07/11 02:04:33;;;;;;;6.13;1.97;;;18.90;99.90;;;;;;7281605;19;20212;-77
2023/07/11 02:06:59;;;;;;;6.60;2.10;;;18.80;99.90;;;;;;7281465;19;20778;-76
2023/07/11 02:09:25;;;;;;;7.87;2.07;;;18.70;99.90;;;;;;7302691;19;20188;-76
2023/07/11 02:11:51;;;;;;;7.40;2.30;;;18.70;99.90;;;;;;7281279;19;20185;-77
2023/07/11 02:14:20;;;;;;;5.57;2.07;;;18.80;99.90;;;;;;7282131;19;20685;-76
2023/07/11 02:16:47;;;;;;;8.50;2.37;;;18.80;99.90;;;;;;7280345;19;20193;-76
2023/07/11 02:19:16;;;;;;;5.07;2.10;;;18.80;99.90;;;;;;7281728;19;20193;-76
2023/07/11 02:21:42;;;;;;;5.67;2.30;;;18.90;99.90;;;;;;7278530;19;20652;-76
2023/07/11 02:24:10;;;;;;;5.87;2.33;;;18.90;99.90;;;;;;7280789;19;20187;-76
2023/07/11 02:26:36;;;;;;;6.27;2.20;;;18.80;99.90;;;;;;7280400;19;20199;-76
2023/07/11 02:29:03;;;;;;;7.37;2.20;;;18.80;99.90;;;;;;7280918;19;20187;-76
2023/07/11 02:31:30;;;;;;;6.33;2.40;;;18.80;99.90;;;;;;7287945;19;20189;-76
2023/07/11 02:33:57;;;;;;;5.97;2.07;;;18.70;99.90;;;;;;7302740;19;20223;-76
2023/07/11 02:36:22;;;;;;;7.37;2.40;;;18.50;99.90;;;;;;7280815;19;20185;-76
2023/07/11 02:38:48;;;;;;;5.60;1.97;;;18.40;99.90;;;;;;7280492;19;20195;-76
2023/07/11 02:41:14;;;;;;;6.00;2.13;;;18.40;99.90;;;;;;7279404;19;20660;-76
2023/07/11 02:43:40;;;;;;;6.17;2.20;;;18.30;99.90;;;;;;7282075;19;20234;-76
2023/07/11 02:46:06;;;;;;;6.17;1.93;;;18.20;99.90;;;;;;7279991;19;20285;-76
2023/07/11 02:48:31;;;;;;;5.63;2.00;;;18.10;99.90;;;;;;7279753;19;20648;-76
2023/07/11 02:50:57;;;;;;;7.60;1.93;;;18.10;99.90;;;;;;7303195;19;20189;-76
2023/07/11 02:53:23;;;;;;;5.53;2.23;;;18.00;99.90;;;;;;7279384;19;20185;-76
2023/07/11 02:55:53;;;;;;;5.00;1.80;;;18.00;99.90;;;;;;7277340;19;20227;-76
2023/07/11 02:58:19;;;;;;;8.27;2.20;;;18.00;99.90;;;;;;7280406;19;20193;-76
2023/07/11 03:00:54;;;;;;;6.97;2.00;;;17.90;99.90;;;;;;7279619;19;20553;-76
2023/07/11 03:03:20;;;;;;;6.13;2.20;;;17.90;99.90;;;;;;7278132;19;20194;-76
2023/07/11 03:05:50;;;;;;;6.87;2.50;;;17.80;99.90;;;;;;7279453;19;20189;-76
2023/07/11 03:08:16;;;;;;;9.37;2.53;;;17.80;99.90;;;;;;7280069;19;20202;-76
2023/07/11 03:10:42;;;;;;;5.47;2.30;;;17.80;99.90;;;;;;7279039;19;20597;-76
2023/07/11 03:13:09;;;;;;;9.23;2.40;;;17.90;99.90;;;;;;7280127;19;20203;-76
2023/07/11 03:15:35;;;;;;;7.80;2.23;;;18.00;99.90;;;;;;7278522;19;20188;-76
2023/07/11 03:18:01;;;;;;;9.70;2.60;;;18.10;99.90;;;;;;7279429;19;20204;-76
2023/07/11 03:20:27;;;;;;;6.50;2.13;;;18.20;99.90;;;;;;7303080;19;20184;-76
2023/07/11 03:22:52;;;;;;;6.77;2.50;;;18.20;99.90;;;;;;7277635;19;20729;-76
2023/07/11 03:25:18;;;;;;;9.80;2.83;;;18.20;99.90;;;;;;7278195;19;20185;-76
2023/07/11 03:27:44;;;;;;;7.80;2.60;;;18.30;99.90;;;;;;7278927;19;20182;-76
2023/07/11 03:30:10;;;;;;;7.83;2.50;;;18.40;99.90;;;;;;7278852;19;20194;-76
2023/07/11 03:32:36;;;;;;;9.40;2.60;;;18.30;99.90;;;;;;7278366;19;20762;-76
2023/07/11 03:35:01;;;;;;;8.63;2.70;;;18.40;99.90;;;;;;7279342;19;20256;-76
2023/07/11 03:37:27;;;;;;;7.40;2.33;;;18.40;99.90;;;;;;7300193;19;20185;-76
2023/07/11 03:39:53;;;;;;;8.20;2.70;;;18.40;99.90;;;;;;7279634;19;20187;-76
2023/07/11 03:42:19;;;;;;;5.87;2.63;;;18.50;99.90;;;;;;7279940;19;20181;-77
2023/07/11 03:44:45;;;;;;;6.10;2.60;;;18.50;99.90;;;;;;7279605;19;20952;-76
2023/07/11 03:47:11;;;;;;;8.17;2.50;;;18.60;99.90;;;;;;7278058;19;20217;-76
2023/07/11 03:49:37;;;;;;;8.23;2.73;;;18.60;99.90;;;;;;7278798;19;20343;-76
2023/07/11 03:52:03;;;;;;;9.57;2.53;;;18.50;99.90;;;;;;7276935;19;20720;-76
2023/07/11 03:54:29;;;;;;;8.70;2.20;;;18.50;99.90;;;;;;7286118;19;20197;-76
2023/07/11 03:56:54;;;;;;;6.47;2.40;;;18.50;99.90;;;;;;7299922;19;20640;-77
2023/07/11 03:59:20;;;;;;;7.70;2.43;;;18.60;99.90;;;;;;7275745;19;20200;-76
2023/07/11 04:01:46;;;;;;;7.50;2.40;;;18.50;99.90;;;;;;7276980;19;20192;-76
2023/07/11 04:04:13;;;;;;;11.67;2.50;;;18.60;99.90;;;;;;7277110;19;20197;-76
2023/07/11 04:06:38;;;;;;;8.63;2.40;;;18.50;99.90;;;;;;7278418;19;20244;-76
2023/07/11 04:09:04;;;;;;;9.90;2.23;;;18.50;99.90;;;;;;7277652;19;20282;-76
2023/07/11 04:11:30;;;;;;;7.87;2.30;;;18.60;99.90;;;;;;7279241;19;20185;-77
2023/07/11 04:13:55;;;;;;;7.93;2.30;;;18.60;99.90;;;;;;7300626;19;20210;-77
2023/07/11 04:16:21;;;;;;;9.50;2.83;;;18.70;99.90;;;;;;7276154;19;20192;-77
2023/07/11 04:18:47;;;;;;;7.93;2.57;;;18.70;99.90;;;;;;7276759;19;20660;-76
2023/07/11 04:21:13;;;;;;;7.97;2.57;;;18.90;99.90;;;;;;7277412;19;20189;-77
2023/07/11 04:23:38;;;;;;;7.43;2.20;;;19.00;99.90;;;;;;7275336;19;20209;-76
2023/07/11 04:26:04;;;;;;;8.77;2.40;;;19.00;99.90;;;;;;7277806;19;20212;-76
2023/07/11 04:28:30;;;;;;;7.97;2.50;;;19.10;99.90;;;;;;7276309;19;20527;-76
2023/07/11 04:30:56;;;;;;;7.87;2.70;;;19.20;99.90;;;;;;7299878;19;20189;-77
2023/07/11 04:33:22;;;;;;;7.13;2.63;;;19.30;99.90;;;;;;7275583;19;20185;-77
2023/07/11 04:35:48;;;;;;;7.03;2.40;;;19.50;99.90;;;;;;7277021;19;20198;-77
2023/07/11 04:38:14;;;;;;;6.27;2.30;;;19.50;99.90;;;;;;7277703;19;20195;-76
2023/07/11 04:40:39;;;;;;;9.20;2.20;;;19.80;99.90;;;;;;7276025;19;20189;-76
2023/07/11 04:43:05;;;;;;;8.20;2.50;;;20.30;99.90;;;;;;7275369;19;20293;-76
2023/07/11 04:45:32;;;;;;;7.53;2.10;;;21.40;99.90;;;;;;7283674;19;20192;-77
2023/07/11 04:47:57;;;;;;;7.43;2.10;;;22.40;99.90;;;;;;7303173;19;20659;-77
2023/07/11 04:50:23;;;;;;;4.67;2.10;;;23.60;99.90;;;;;;7291912;19;20185;-77
2023/07/11 04:52:49;;;;;;;6.13;1.93;;;24.40;99.90;;;;;;7282119;19;20189;-77
2023/07/11 04:55:15;;;;;;;7.70;2.13;;;24.80;99.90;;;;;;7283200;19;20204;-77
2023/07/11 04:57:41;;;;;;;10.40;2.67;;;25.30;99.90;;;;;;7283088;19;20188;-77
2023/07/11 05:00:08;;;;;;;7.90;2.00;;;26.30;99.90;;;;;;7282255;19;20246;-77
2023/07/11 05:02:34;;;;;;;8.18;2.95;;;27.20;99.90;;;;;;7282865;19;20307;-77
2023/07/11 05:05:00;;;;;;;6.75;2.30;;;27.80;99.90;;;;;;7283465;19;20534;-76
2023/07/11 05:07:26;;;;;;;9.07;2.25;;;28.70;99.90;;;;;;7305202;19;20216;-77
2023/07/11 05:09:51;;;;;;;7.65;1.90;;;29.30;99.90;;;;;;7283088;19;20185;-76
2023/07/11 05:12:17;;;;;;;6.97;2.05;;;29.40;99.90;;;;;;7282933;19;21461;-77
2023/07/11 05:14:43;;;;;;;5.40;1.80;;;29.70;99.90;;;;;;7283217;19;20212;-77
2023/07/11 05:17:09;;;;;;;7.57;1.77;;;29.20;99.90;;;;;;7281959;19;20647;-77
2023/07/11 05:19:34;;;;;;;6.70;1.83;;;29.10;99.90;;;;;;7281746;19;20192;-77
2023/07/11 05:22:00;;;;;;;7.97;1.92;;;29.20;99.90;;;;;;7282985;19;20192;-77
2023/07/11 05:24:26;;;;;;;5.88;1.80;;;30.10;99.90;;;;;;7306109;19;20587;-77
2023/07/11 05:26:52;;;;;;;8.10;1.70;;;30.00;99.90;;;;;;7282746;19;20193;-77
2023/07/11 05:29:17;;;;;;;5.90;1.58;;;30.30;99.90;;;;;;7282971;19;21007;-77
2023/07/11 05:31:43;;;;;;;6.50;2.10;;;30.40;99.90;;;;;;7283059;19;20189;-76
2023/07/11 05:34:10;;;;;;;8.38;1.70;;;30.50;99.90;;;;;;7280233;19;20958;-75
2023/07/11 05:36:36;;;;;;;6.25;1.90;;;31.20;99.90;;;;;;7283334;19;20829;-76
2023/07/11 05:39:03;;;;;;;5.85;1.92;;;31.70;99.90;;;;;;7282700;19;20193;-76
2023/07/11 05:41:29;;;;;;;5.45;1.80;;;31.50;99.20;;;;;;7297922;19;20192;-76
2023/07/11 05:43:55;;;;;;;6.72;1.88;;;30.90;99.90;;;;;;7304702;19;20193;-75
2023/07/11 05:46:22;;;;;;;9.85;2.38;;;30.40;99.90;;;;;;7282506;19;20256;-76
2023/07/11 05:48:49;;;;;;;6.60;1.70;;;30.50;99.90;;;;;;7282619;19;21169;-76
2023/07/11 05:51:16;;;;;;;7.45;2.08;;;31.10;99.50;;;;;;7282970;19;20220;-76
2023/07/11 05:53:42;;;;;;;6.47;1.85;;;31.10;98.90;;;;;;7282223;19;20193;-76
2023/07/11 05:56:08;;;;;;;6.07;1.77;;;31.60;98.30;;;;;;7281073;19;20188;-76
2023/07/11 05:58:35;;;;;;;8.07;2.13;;;31.10;97.70;;;;;;7282041;19;20541;-76
2023/07/11 06:01:02;;;;;;;8.70;2.28;;;30.30;98.40;;;;;;7281201;19;20199;-76
2023/07/11 06:03:29;;;;;;;8.50;2.28;;;30.10;98.70;;;;;;7302063;19;20571;-76
2023/07/11 06:06:03;;;;;;;4.65;1.92;;;29.90;99.60;;;;;;7282263;19;20310;-76
2023/07/11 06:08:30;;;;;;;7.20;1.92;;;29.90;99.60;;;;;;7269097;19;20200;-76
2023/07/11 06:10:58;;;;;;;6.20;1.60;;;30.50;98.80;;;;;;7303630;19;20202;-76
2023/07/11 06:13:24;;;;;;;9.60;2.10;;;31.10;98.40;;;;;;7282316;19;20209;-76
2023/07/11 06:16:00;;;;;;;8.00;1.98;;;31.30;97.50;;;;;;7281117;19;20216;-76
2023/07/11 06:18:26;;;;;;;5.30;1.42;;;31.60;96.80;;;;;;7283048;19;20192;-76
2023/07/11 06:20:52;;;;;;;5.75;1.80;;;30.70;97.60;;;;;;7283020;19;20184;-76
2023/07/11 06:23:19;;;;;;;9.13;2.20;;;30.70;97.50;;;;;;7281846;19;20587;-75
2023/07/11 06:25:44;;;;;;;7.45;1.58;;;31.00;97.50;;;;;;7281868;19;20193;-76
2023/07/11 06:28:10;;;;;;;5.43;1.63;;;31.50;96.50;;;;;;7283582;19;20608;-76
2023/07/11 06:30:36;;;;;;;7.10;1.80;;;31.30;96.60;;;;;;7281652;19;20659;-76
2023/07/11 06:33:01;;;;;;;9.57;1.85;;;31.60;96.50;;;;;;7281624;19;20191;-76
2023/07/11 06:35:27;;;;;;;7.72;1.90;;;31.70;96.20;;;;;;7304102;19;20248;-77
2023/07/11 06:37:53;;;;;;;6.93;1.80;;;31.50;95.70;;;;;;7281503;19;20177;-76
2023/07/11 06:40:18;;;;;;;4.47;1.70;;;31.30;96.30;;;;;;7280402;19;20204;-76
2023/07/11 06:42:44;;;;;;;7.53;2.08;;;30.50;97.10;;;;;;7282048;19;20252;-76
2023/07/11 06:45:10;;;;;;;9.95;2.05;;;30.20;98.10;;;;;;7280010;19;20188;-76
2023/07/11 06:47:36;;;;;;;7.30;2.05;;;30.70;98.00;;;;;;7279653;19;20256;-76
2023/07/11 06:50:01;;;;;;;9.10;2.00;;;30.70;98.00;;;;;;7279821;19;20664;-76
2023/07/11 06:52:28;;;;;;;6.63;2.10;;;30.60;97.70;;;;;;7302233;19;20193;-75
2023/07/11 06:54:55;;;;;;;4.78;1.83;;;30.60;98.50;;;;;;7281335;19;20701;-76
2023/07/11 06:57:21;;;;;;;6.03;1.80;;;31.50;97.80;;;;;;7280933;19;20191;-76
2023/07/11 06:59:47;;;;;;;6.65;2.05;;;33.20;95.70;;;;;;7280640;19;20185;-76
2023/07/11 07:02:13;;;;;;;5.57;1.65;;;33.70;93.70;;;;;;7280377;19;20189;-76
2023/07/11 07:04:39;;;;;;;10.00;1.95;;;33.90;93.00;;;;;;7278945;19;20185;-76
2023/07/11 07:07:05;;;;;;;8.60;2.28;;;34.50;92.30;;;;;;7277062;19;20543;-76
2023/07/11 07:09:30;;;;;;;9.82;2.00;;;35.40;92.20;;;;;;7279432;19;20663;-76
2023/07/11 07:11:56;;;;;;;6.65;1.80;;;36.70;90.10;;;;;;7300471;19;20801;-76
2023/07/11 07:14:22;;;;;;;8.57;1.92;;;37.30;85.70;;;;;;7279185;19;20199;-76
2023/07/11 07:16:47;;;;;;;7.03;1.67;;;37.90;83.50;;;;;;7279006;19;20665;-76
2023/07/11 07:19:13;;;;;;;6.85;1.92;;;38.60;80.40;;;;;;7280172;19;20522;-76
2023/07/11 07:21:39;;;;;;;6.60;1.75;;;39.70;77.80;;;;;;7279857;19;20285;-76
2023/07/11 07:24:07;;;;;;;5.40;1.63;;;39.50;73.40;;;;;;7279376;19;20192;-76
2023/07/11 07:26:32;;;;;;;9.98;2.15;;;40.20;71.40;;;;;;7278016;19;20188;-76
2023/07/11 07:28:58;;;;;;;8.43;1.98;;;40.60;69.20;;;;;;7299412;19;20184;-76
2023/07/11 07:31:24;;;;;;;6.15;1.70;;;40.70;66.50;;;;;;7291316;19;20289;-76
2023/07/11 07:33:50;;;;;;;5.57;1.75;;;40.60;66.20;;;;;;7279997;19;20196;-76
2023/07/11 07:36:16;;;;;;;7.22;1.70;;;40.90;65.70;;;;;;7280151;19;20196;-76
2023/07/11 07:38:41;;;;;;;6.38;1.98;;;40.80;63.10;;;;;;7280230;19;20216;-76
2023/07/11 07:41:09;;;;;;;6.18;1.95;;;41.70;62.70;;;;;;7281013;19;20197;-77
2023/07/11 07:43:36;;;;;;;9.45;2.60;;;42.00;61.00;;;;;;7279645;19;20200;-76
2023/07/11 07:46:03;;;;;;;6.65;1.90;;;42.20;61.40;;;;;;7282425;19;20189;-76
2023/07/11 07:48:29;;;;;;;7.53;1.90;;;42.70;58.40;;;;;;7295040;19;20193;-76
2023/07/11 07:51:21;;;;;;;6.40;1.88;;;43.20;58.20;;;;;;7301005;19;20188;-76
2023/07/11 07:53:47;;;;;;;8.95;2.10;;;42.90;56.60;;;;;;7178858;19;2004404;-76
2023/07/11 07:56:21;;;;;;;8.93;1.70;;;41.50;57.10;;;;;;7280721;19;20199;-76
2023/07/11 07:58:48;;;;;;;9.02;1.73;;;41.00;57.80;;;;;;7280611;19;20700;-76
2023/07/11 08:01:15;;;;;;;8.73;1.90;;;41.80;58.40;;;;;;7280190;19;20192;-76
2023/07/11 08:03:42;;;;;;;7.18;2.17;;;43.50;56.80;;;;;;7277737;19;20196;-76
2023/07/11 08:06:09;;;;;;;7.25;1.60;;;43.50;54.70;;;;;;7279645;19;20602;-76
2023/07/11 08:08:35;;;;;;;8.02;1.92;;;42.80;54.90;;;;;;7276329;19;20192;-76
2023/07/11 08:11:02;;;;;;;6.85;1.80;;;42.70;55.00;;;;;;7277881;19;20187;-75
2023/07/11 08:13:28;;;;;;;8.50;1.90;;;43.20;55.30;;;;;;7300092;19;20193;-75
2023/07/11 08:15:54;;;;;;;8.60;2.03;;;43.40;53.90;;;;;;7278151;19;20184;-75
2023/07/11 08:18:20;;;;;;;6.57;1.90;;;42.90;54.30;;;;;;7281300;19;20210;-75
2023/07/11 08:20:45;;;;;;;6.88;1.77;;;43.20;54.20;;;;;;7283890;19;20196;-75
2023/07/11 08:23:11;;;;;;;8.40;1.92;;;43.60;54.00;;;;;;7284100;19;20541;-76
2023/07/11 08:25:37;;;;;;;10.38;2.13;;;43.70;54.60;;;;;;7284734;19;20200;-75
2023/07/11 08:28:04;;;;;;;9.18;1.70;;;42.80;53.50;;;;;;7283062;19;20192;-75
2023/07/11 08:30:39;;;;;;;9.75;1.90;;;42.90;53.60;;;;;;7288494;19;20222;-75
2023/07/11 08:33:05;;;;;;;8.00;1.77;;;43.70;53.30;;;;;;7283186;19;20203;-75
2023/07/11 08:35:31;;;;;;;6.90;1.75;;;44.10;52.30;;;;;;7284236;19;20211;-76
2023/07/11 08:37:56;;;;;;;5.90;1.80;;;44.20;53.00;;;;;;7306293;19;20618;-76
2023/07/11 08:40:29;;;;;;;6.70;2.20;;;43.40;52.00;;;;;;7283427;19;20192;-75
2023/07/11 08:42:55;;;;;;;6.93;1.88;;;43.20;52.30;;;;;;7284401;19;20223;-75
2023/07/11 08:45:38;;;;;;;10.80;2.10;;;42.80;52.70;;;;;;7284035;19;20721;-76
2023/07/11 08:48:18;;;;;;;11.63;2.20;;;42.90;53.80;;;;;;7180752;19;2005018;-75
2023/07/11 08:50:56;;;;;;;6.80;1.80;;;43.00;54.30;;;;;;7284673;19;20200;-75
2023/07/11 08:53:38;;;;;;;6.90;2.17;;;44.00;53.80;;;;;;7284290;19;20377;-76
2023/07/11 08:56:36;;;;;;;10.68;2.08;;;43.30;52.30;;;;;;7179826;19;2005049;-76
2023/07/11 08:59:06;;;;;;;11.10;2.17;;;42.40;53.30;;;;;;7261075;19;20587;-75
2023/07/11 09:01:39;;;;;;;5.40;1.90;;;41.70;54.40;;;;;;7283237;19;20210;-76
2023/07/11 09:04:12;;;;;;;6.07;1.85;;;40.60;54.20;;;;;;7281519;19;20191;-76
2023/07/11 09:06:48;;;;;;;11.50;2.03;;;41.40;54.80;;;;;;7283203;19;20185;-76
2023/07/11 09:09:14;;;;;;;7.85;2.00;;;42.10;54.20;;;;;;7283209;19;20184;-76
2023/07/11 09:12:03;;;;;;;7.20;2.00;;;42.20;53.50;;;;;;7280788;19;20216;-76
2023/07/11 09:14:51;;;;;;;5.47;1.90;;;43.10;53.20;;;;;;7283580;19;20220;-76
2023/07/11 09:17:30;;;;;;;7.07;1.70;;;44.30;51.00;;;;;;7280823;19;20581;-76
2023/07/11 09:20:20;;;;;;;9.10;1.95;;;44.00;51.50;;;;;;7282374;19;20198;-76
2023/07/11 09:22:58;;;;;;;9.32;2.30;;;43.00;51.30;;;;;;7179577;19;2005045;-76
2023/07/11 09:25:33;;;;;;;10.73;2.00;;;42.80;51.90;;;;;;7283075;19;20646;-76
2023/07/11 09:28:06;;;;;;;7.40;2.10;;;43.10;51.10;;;;;;7280808;19;20710;-75
2023/07/11 09:30:45;;;;;;;4.80;1.55;;;44.00;51.50;;;;;;7281254;19;20276;-75
2023/07/11 09:33:18;;;;;;;6.03;2.03;;;45.10;50.60;;;;;;7282289;19;20196;-75
2023/07/11 09:35:45;;;;;;;8.73;2.05;;;44.20;50.80;;;;;;7281818;19;20191;-76
2023/07/11 09:38:32;;;;;;;6.60;1.80;;;44.40;50.50;;;;;;7280936;19;20711;-75
2023/07/11 09:41:09;;;;;;;8.52;2.38;;;44.60;50.50;;;;;;7279977;19;20720;-75
2023/07/11 09:43:35;;;;;;;6.15;1.77;;;44.60;50.00;;;;;;7180350;19;2004831;-76
2023/07/11 09:46:01;;;;;;;8.45;2.00;;;44.40;49.30;;;;;;7283062;19;20184;-75
2023/07/11 09:48:32;;;;;;;8.88;2.15;;;45.00;49.80;;;;;;7302343;19;20573;-76
2023/07/11 09:51:09;;;;;;;7.75;2.13;;;45.50;49.00;;;;;;7283239;19;20682;-75
2023/07/11 09:53:35;;;;;;;7.13;1.92;;;46.20;48.30;;;;;;7178552;19;2004533;-75
2023/07/11 09:56:03;;;;;;;7.75;1.75;;;44.80;49.80;;;;;;7282366;19;20224;-75
2023/07/11 09:58:32;;;;;;;5.25;1.90;;;44.50;48.50;;;;;;7297428;19;20207;-75
2023/07/11 10:01:04;;;;;;;7.65;2.13;;;43.00;50.70;;;;;;7302767;19;20772;-75
2023/07/11 10:03:34;;;;;;;8.73;1.80;;;43.10;51.60;;;;;;7267585;19;20193;-75
2023/07/11 10:06:01;;;;;;;10.45;2.10;;;44.10;51.60;;;;;;7289877;19;20213;-75
2023/07/11 10:08:30;;;;;;;9.02;1.98;;;44.20;49.80;;;;;;7303972;19;20195;-75
2023/07/11 10:11:03;;;;;;;5.43;1.80;;;43.60;51.30;;;;;;7281577;19;20274;-74
2023/07/11 10:13:31;;;;;;;8.82;2.40;;;43.30;49.40;;;;;;7264706;19;20184;-75
2023/07/11 10:15:58;;;;;;;9.00;2.30;;;43.00;50.60;;;;;;7303659;19;20181;-76
2023/07/11 10:18:28;;;;;;;8.93;2.20;;;42.70;50.90;;;;;;7282567;19;20635;-75
2023/07/11 10:21:15;;;;;;;5.43;1.77;;;42.40;50.60;;;;;;7281785;19;20195;-76
2023/07/11 10:23:48;;;;;;;9.00;2.22;;;42.30;51.30;;;;;;7177922;19;2004803;-75
2023/07/11 10:26:26;;;;;;;6.18;2.15;;;41.40;51.10;;;;;;7280745;19;20272;-75
2023/07/11 10:29:03;;;;;;;5.65;1.92;;;41.00;52.00;;;;;;7280373;19;20663;-75
2023/07/11 10:31:35;;;;;;;9.30;2.22;;;41.10;53.10;;;;;;7281081;19;20191;-75
2023/07/11 10:34:15;;;;;;;8.07;2.25;;;42.30;52.40;;;;;;7280769;19;20185;-75
2023/07/11 10:36:48;;;;;;;9.32;2.15;;;43.50;50.80;;;;;;7281019;19;20216;-75
2023/07/11 10:39:24;;;;;;;7.20;2.13;;;43.30;49.30;;;;;;7281647;19;20188;-75
2023/07/11 10:42:12;;;;;;;6.80;2.10;;;42.60;50.50;;;;;;7278973;19;20652;-75
2023/07/11 10:44:48;;;;;;;10.57;2.30;;;41.50;51.40;;;;;;7176914;19;2004458;-75
2023/07/11 10:47:27;;;;;;;7.22;2.13;;;41.80;51.70;;;;;;7279859;19;20212;-75
2023/07/11 10:49:54;;;;;;;10.88;2.25;;;42.70;50.50;;;;;;7280026;19;20309;-75
2023/07/11 10:52:25;;;;;;;9.45;2.30;;;42.60;50.30;;;;;;7279322;19;20998;-75
2023/07/11 10:55:05;;;;;;;6.60;2.10;;;42.00;50.70;;;;;;7280239;19;20200;-75
2023/07/11 10:57:38;;;;;;;10.23;2.60;;;41.20;50.90;;;;;;7259079;19;20715;-75
2023/07/11 11:00:16;;;;;;;8.10;2.33;;;40.10;52.90;;;;;;7280858;19;20277;-77
2023/07/11 11:03:01;;;;;;;7.72;2.33;;;41.40;54.10;;;;;;7311340;19;20935;-75
2023/07/11 11:05:42;;;;;;;6.82;2.20;;;41.50;51.80;;;;;;7314411;19;20263;-76
2023/07/11 11:08:17;;;;;;;8.77;2.53;;;40.80;51.10;;;;;;7210115;19;2004465;-76
2023/07/11 11:10:55;;;;;;;9.13;2.50;;;40.50;53.40;;;;;;7311939;19;20738;-75
2023/07/11 11:13:42;;;;;;;7.13;2.17;;;40.60;52.00;;;;;;7312626;19;20293;-76
2023/07/11 11:16:25;;;;;;;7.43;2.30;;;40.80;52.40;;;;;;7210268;19;2004898;-76
2023/07/11 11:19:34;;;;;;;6.57;1.88;;;40.80;52.40;;;;;;7312136;19;20188;-75
2023/07/11 11:22:14;;;;;;;8.88;2.17;;;41.70;52.60;;;;;;7197704;19;2004737;-76
2023/07/11 11:24:49;;;;;;;7.18;1.98;;;42.60;51.10;;;;;;7313127;19;20188;-76
2023/07/11 11:27:43;;;;;;;6.10;2.15;;;42.10;51.20;;;;;;7313268;19;20194;-76
2023/07/11 11:30:30;;;;;;;5.45;2.03;;;41.60;51.20;;;;;;7210319;19;2004781;-76
2023/07/11 11:33:33;;;;;;;7.65;2.35;;;42.20;51.40;;;;;;7313055;19;20975;-76
2023/07/11 11:36:17;;;;;;;8.30;2.28;;;41.70;51.60;;;;;;7210656;19;2006766;-76
2023/07/11 11:38:58;;;;;;;8.40;2.60;;;40.80;51.60;;;;;;7209520;19;2004771;-76
2023/07/11 11:41:41;;;;;;;6.85;2.30;;;39.80;52.30;;;;;;7311351;19;20191;-76
2023/07/11 11:44:15;;;;;;;10.70;2.47;;;40.30;52.80;;;;;;7210414;19;2004574;-76
2023/07/11 11:46:42;;;;;;;7.65;2.05;;;41.00;53.20;;;;;;7311398;19;20184;-76
2023/07/11 11:49:11;;;;;;;8.30;2.20;;;41.80;52.80;;;;;;7312802;19;20259;-76
2023/07/11 11:51:37;;;;;;;5.95;1.90;;;42.70;50.90;;;;;;7311927;19;20195;-76
2023/07/11 11:54:12;;;;;;;7.18;2.20;;;42.30;50.30;;;;;;7311409;19;20189;-76
2023/07/11 11:56:44;;;;;;;6.70;2.28;;;42.20;51.50;;;;;;7311180;19;20179;-76
2023/07/11 11:59:26;;;;;;;5.05;2.10;;;41.00;51.10;;;;;;7311809;19;20217;-76
2023/07/11 12:02:08;;;;;;;6.40;2.35;;;40.70;52.10;;;;;;7310164;19;20192;-76
2023/07/11 12:04:38;;;;;;;7.95;2.22;;;39.70;53.00;;;;;;7209389;19;2004822;-76
2023/07/11 12:07:24;;;;;;;5.00;1.92;;;38.10;55.00;;;;;;7310656;19;20228;-76
2023/07/11 12:09:53;;;;;;;7.03;1.88;;;38.30;55.40;;;;;;7311206;19;20222;-76
2023/07/11 12:12:45;;;;;;;7.10;2.17;;;38.50;54.60;;;;;;7305176;19;22414;-76
2023/07/11 12:15:11;;;;;;;7.65;2.40;;;37.50;56.10;;;;;;7181505;19;2004768;-76
2023/07/11 12:17:39;;;;;;;5.88;1.98;;;36.50;56.50;;;;;;7283643;19;20199;-75
2023/07/11 12:20:08;;;;;;;5.95;2.20;;;35.60;58.20;;;;;;7282057;19;20193;-76
2023/07/11 12:22:36;;;;;;;8.70;2.35;;;35.10;58.60;;;;;;7283208;19;20192;-75
2023/07/11 12:25:22;;;;;;;5.95;2.10;;;34.90;59.90;;;;;;7283171;19;20208;-75
2023/07/11 12:28:01;;;;;;;6.05;2.00;;;34.50;60.20;;;;;;7282709;19;20189;-75
2023/07/11 12:30:27;;;;;;;7.53;2.15;;;33.60;60.70;;;;;;7283264;19;20719;-75
2023/07/11 12:32:54;;;;;;;9.07;2.45;;;33.40;62.40;;;;;;7283337;19;20284;-75
2023/07/11 12:35:22;;;;;;;8.35;1.90;;;33.30;62.80;;;;;;7282695;19;20186;-76
2023/07/11 12:37:56;;;;;;;8.77;2.17;;;33.50;65.50;;;;;;7281871;19;20197;-75
2023/07/11 12:40:26;;;;;;;7.35;1.90;;;33.90;63.20;;;;;;7282755;19;20192;-76
2023/07/11 12:42:53;;;;;;;6.95;1.85;;;34.20;62.00;;;;;;7282033;19;20291;-75
2023/07/11 12:45:24;;;;;;;8.20;2.38;;;33.80;61.40;;;;;;7283218;19;20202;-75
2023/07/11 12:48:00;;;;;;;6.65;1.83;;;33.30;62.20;;;;;;7282441;19;20210;-75
2023/07/11 12:50:39;;;;;;;9.77;2.00;;;33.30;66.10;;;;;;7283623;19;20196;-75
2023/07/11 12:53:05;;;;;;;7.20;1.98;;;33.30;64.60;;;;;;7179254;19;2004610;-75
2023/07/11 12:55:30;;;;;;;6.55;2.40;;;33.50;63.90;;;;;;7284449;19;20200;-75
2023/07/11 12:57:57;;;;;;;10.15;2.40;;;33.70;64.50;;;;;;7305136;19;20181;-75